PWSweather.com
Personal Weather Stations
Station Observations
UXOLA
Alcoy, AlcoyES

AlcoyAlcoyES

Lat: 38.70299, Lon: -0.48184

Elevation: 1935

Station Type: PCE FWS-20,

http://www.fiestasalcoy.xyz

High Low Average
Temperature 54.1°F12.3°C 34.2°F1.2°C 44.3°F6.8°C
Dew Point 39.2°F4.0°C 23.6°F-4.7°C 34.5°F1.4°C
Winds 8.3 mph 13.4 kmh Calm Calm 3.0 mph SSE4.8 kmh SSE
Wind Gusts 12.1 mph19.5 kmh 0.7 mph1.1 kmh 5.0 mph8.0 kmh
Humidity 83% 53% 69%
Pressure 29.84 in1010.5 mb 29.73 in1006.8 mb -
Precipitation 0.00 in0.0 mm - -
Hour Temp Dew Point Humidity Winds Wind Gusts Pressure Precip Precip Rate Daily Precip Total
12:00 AM 34.2°F1.2°C 23.6°F-4.7°C 65% 0.7 mph WNW1.1 kmh WNW 2.2 mph3.5 kmh 29.74 in1007.1 mb 0.00 in0.0 mm 0.00 in0.0 mm 0.00 in0.0 mm
12:15 AM 34.2°F1.2°C 23.6°F-4.7°C 65% 0.7 mph WNW1.1 kmh WNW 2.2 mph3.5 kmh 29.74 in1007.1 mb 0.00 in0.0 mm 0.00 in0.0 mm 0.00 in0.0 mm
12:30 AM 34.2°F1.2°C 23.6°F-4.7°C 65% 0.7 mph WNW1.1 kmh WNW 2.2 mph3.5 kmh 29.74 in1007.1 mb 0.00 in0.0 mm 0.00 in0.0 mm 0.00 in0.0 mm
12:45 AM 34.2°F1.2°C 23.6°F-4.7°C 65% 0.7 mph WNW1.1 kmh WNW 2.2 mph3.5 kmh 29.74 in1007.1 mb 0.00 in0.0 mm 0.00 in0.0 mm 0.00 in0.0 mm
01:00 AM 34.2°F1.2°C 23.6°F-4.7°C 65% 0.7 mph WNW1.1 kmh WNW 2.2 mph3.5 kmh 29.74 in1007.1 mb 0.00 in0.0 mm 0.00 in0.0 mm 0.00 in0.0 mm
01:15 AM 34.2°F1.2°C 23.6°F-4.7°C 65% 0.7 mph WNW1.1 kmh WNW 2.2 mph3.5 kmh 29.74 in1007.1 mb 0.00 in0.0 mm 0.00 in0.0 mm 0.00 in0.0 mm
01:30 AM 34.2°F1.2°C 23.6°F-4.7°C 65% 0.7 mph WNW1.1 kmh WNW 2.2 mph3.5 kmh 29.74 in1007.1 mb 0.00 in0.0 mm 0.00 in0.0 mm 0.00 in0.0 mm
01:45 AM 34.2°F1.2°C 23.6°F-4.7°C 65% 0.7 mph WNW1.1 kmh WNW 2.2 mph3.5 kmh 29.74 in1007.1 mb 0.00 in0.0 mm 0.00 in0.0 mm 0.00 in0.0 mm
02:00 AM 34.2°F1.2°C 23.6°F-4.7°C 65% 0.7 mph WNW1.1 kmh WNW 2.2 mph3.5 kmh 29.74 in1007.1 mb 0.00 in0.0 mm 0.00 in0.0 mm 0.00 in0.0 mm
02:15 AM 34.2°F1.2°C 23.6°F-4.7°C 65% 0.7 mph WNW1.1 kmh WNW 2.2 mph3.5 kmh 29.74 in1007.1 mb 0.00 in0.0 mm 0.00 in0.0 mm 0.00 in0.0 mm
02:30 AM 34.2°F1.2°C 23.6°F-4.7°C 65% 0.7 mph WNW1.1 kmh WNW 2.2 mph3.5 kmh 29.74 in1007.1 mb 0.00 in0.0 mm 0.00 in0.0 mm 0.00 in0.0 mm
02:45 AM 34.2°F1.2°C 23.6°F-4.7°C 65% 0.7 mph WNW1.1 kmh WNW 2.2 mph3.5 kmh 29.74 in1007.1 mb 0.00 in0.0 mm 0.00 in0.0 mm 0.00 in0.0 mm
03:00 AM 34.2°F1.2°C 23.6°F-4.7°C 65% 0.7 mph WNW1.1 kmh WNW 2.2 mph3.5 kmh 29.74 in1007.1 mb 0.00 in0.0 mm 0.00 in0.0 mm 0.00 in0.0 mm
03:15 AM 34.2°F1.2°C 23.6°F-4.7°C 65% 0.7 mph WNW1.1 kmh WNW 2.2 mph3.5 kmh 29.74 in1007.1 mb 0.00 in0.0 mm 0.00 in0.0 mm 0.00 in0.0 mm
03:30 AM 34.2°F1.2°C 23.6°F-4.7°C 65% 0.7 mph WNW1.1 kmh WNW 2.2 mph3.5 kmh 29.74 in1007.1 mb 0.00 in0.0 mm 0.00 in0.0 mm 0.00 in0.0 mm
07:15 AM 37.6°F3.1°C 32.0°F0.0°C 80% Calm Calm 1.6 mph2.6 kmh 29.81 in1009.5 mb 0.00 in0.0 mm 0.00 in0.0 mm 0.00 in0.0 mm
07:30 AM 37.8°F3.2°C 32.5°F0.3°C 81% Calm Calm 1.6 mph2.6 kmh 29.80 in1009.1 mb 0.00 in0.0 mm 0.00 in0.0 mm 0.00 in0.0 mm
07:45 AM 37.9°F3.3°C 32.6°F0.3°C 81% Calm Calm 0.7 mph1.1 kmh 29.81 in1009.5 mb 0.00 in0.0 mm 0.00 in0.0 mm 0.00 in0.0 mm
08:00 AM 38.1°F3.4°C 32.8°F0.4°C 81% Calm Calm 0.7 mph1.1 kmh 29.81 in1009.5 mb 0.00 in0.0 mm 0.00 in0.0 mm 0.00 in0.0 mm
08:15 AM 38.7°F3.7°C 33.3°F0.7°C 81% Calm Calm 3.1 mph5.0 kmh 29.81 in1009.5 mb 0.00 in0.0 mm 0.00 in0.0 mm 0.00 in0.0 mm
08:30 AM 39.0°F3.9°C 33.7°F0.9°C 81% 0.7 mph W1.1 kmh W 2.2 mph3.5 kmh 29.82 in1009.8 mb 0.00 in0.0 mm 0.00 in0.0 mm 0.00 in0.0 mm
08:45 AM 39.7°F4.3°C 34.4°F1.3°C 81% 0.7 mph NW1.1 kmh NW 1.6 mph2.6 kmh 29.82 in1009.8 mb 0.00 in0.0 mm 0.00 in0.0 mm 0.00 in0.0 mm
09:00 AM 40.5°F4.7°C 35.1°F1.7°C 81% Calm Calm 1.6 mph2.6 kmh 29.82 in1009.8 mb 0.00 in0.0 mm 0.00 in0.0 mm 0.00 in0.0 mm
09:15 AM 41.2°F5.1°C 35.8°F2.1°C 81% 0.7 mph WSW1.1 kmh WSW 1.6 mph2.6 kmh 29.82 in1009.8 mb 0.00 in0.0 mm 0.00 in0.0 mm 0.00 in0.0 mm
09:30 AM 42.1°F5.6°C 36.4°F2.4°C 80% Calm Calm 1.6 mph2.6 kmh 29.83 in1010.2 mb 0.00 in0.0 mm 0.00 in0.0 mm 0.00 in0.0 mm
09:45 AM 43.0°F6.1°C 37.2°F2.9°C 80% 0.7 mph SE1.1 kmh SE 2.2 mph3.5 kmh 29.83 in1010.2 mb 0.00 in0.0 mm 0.00 in0.0 mm 0.00 in0.0 mm
10:00 AM 43.9°F6.6°C 37.8°F3.2°C 79% 2.2 mph SSE3.5 kmh SSE 3.8 mph6.1 kmh 29.83 in1010.2 mb 0.00 in0.0 mm 0.00 in0.0 mm 0.00 in0.0 mm
10:15 AM 44.6°F7.0°C 36.1°F2.3°C 72% 0.7 mph SSE1.1 kmh SSE 3.1 mph5.0 kmh 29.83 in1010.2 mb 0.00 in0.0 mm 0.00 in0.0 mm 0.00 in0.0 mm
10:30 AM 46.0°F7.8°C 37.2°F2.9°C 71% 5.4 mph SE8.7 kmh SE 8.3 mph13.4 kmh 29.83 in1010.2 mb 0.00 in0.0 mm 0.00 in0.0 mm 0.00 in0.0 mm
10:45 AM 46.2°F7.9°C 36.6°F2.6°C 69% 5.4 mph ESE8.7 kmh ESE 9.2 mph14.8 kmh 29.83 in1010.2 mb 0.00 in0.0 mm 0.00 in0.0 mm 0.00 in0.0 mm
11:00 AM 46.9°F8.3°C 36.9°F2.7°C 68% 4.5 mph ESE7.2 kmh ESE 7.6 mph12.2 kmh 29.84 in1010.5 mb 0.00 in0.0 mm 0.00 in0.0 mm 0.00 in0.0 mm
11:15 AM 46.8°F8.2°C 36.0°F2.2°C 66% 6.0 mph SE9.7 kmh SE 9.8 mph15.8 kmh 29.83 in1010.2 mb 0.00 in0.0 mm 0.00 in0.0 mm 0.00 in0.0 mm
11:30 AM 47.8°F8.8°C 37.0°F2.8°C 66% 6.9 mph ESE11.1 kmh ESE 9.2 mph14.8 kmh 29.84 in1010.5 mb 0.00 in0.0 mm 0.00 in0.0 mm 0.00 in0.0 mm
11:45 AM 48.4°F9.1°C 36.8°F2.7°C 64% 7.6 mph SE12.2 kmh SE 12.1 mph19.5 kmh 29.84 in1010.5 mb 0.00 in0.0 mm 0.00 in0.0 mm 0.00 in0.0 mm
12:00 PM 48.7°F9.3°C 37.1°F2.8°C 64% 2.2 mph SE3.5 kmh SE 10.7 mph17.2 kmh 29.84 in1010.5 mb 0.00 in0.0 mm 0.00 in0.0 mm 0.00 in0.0 mm
12:15 PM 49.1°F9.5°C 37.1°F2.8°C 63% 3.1 mph SE5.0 kmh SE 9.2 mph14.8 kmh 29.83 in1010.2 mb 0.00 in0.0 mm 0.00 in0.0 mm 0.00 in0.0 mm
12:30 PM 50.0°F10.0°C 37.5°F3.1°C 62% 4.5 mph SE7.2 kmh SE 7.6 mph12.2 kmh 29.83 in1010.2 mb 0.00 in0.0 mm 0.00 in0.0 mm 0.00 in0.0 mm
12:45 PM 50.0°F10.0°C 37.5°F3.1°C 62% 5.4 mph SE8.7 kmh SE 9.2 mph14.8 kmh 29.82 in1009.8 mb 0.00 in0.0 mm 0.00 in0.0 mm 0.00 in0.0 mm
01:00 PM 50.7°F10.4°C 37.8°F3.2°C 61% 6.0 mph SE9.7 kmh SE 9.8 mph15.8 kmh 29.81 in1009.5 mb 0.00 in0.0 mm 0.00 in0.0 mm 0.00 in0.0 mm
01:15 PM 50.9°F10.5°C 37.9°F3.3°C 61% 5.4 mph SE8.7 kmh SE 7.6 mph12.2 kmh 29.80 in1009.1 mb 0.00 in0.0 mm 0.00 in0.0 mm 0.00 in0.0 mm
01:30 PM 51.8°F11.0°C 38.4°F3.6°C 60% 6.9 mph SSE11.1 kmh SSE 9.2 mph14.8 kmh 29.80 in1009.1 mb 0.00 in0.0 mm 0.00 in0.0 mm 0.00 in0.0 mm
01:45 PM 52.2°F11.2°C 38.7°F3.7°C 60% 2.2 mph SE3.5 kmh SE 8.3 mph13.4 kmh 29.79 in1008.8 mb 0.00 in0.0 mm 0.00 in0.0 mm 0.00 in0.0 mm
02:00 PM 53.2°F11.8°C 37.5°F3.1°C 55% 3.8 mph SE6.1 kmh SE 9.2 mph14.8 kmh 29.78 in1008.5 mb 0.00 in0.0 mm 0.00 in0.0 mm 0.00 in0.0 mm
02:15 PM 53.6°F12.0°C 37.4°F3.0°C 54% 7.6 mph SE12.2 kmh SE 9.8 mph15.8 kmh 29.77 in1008.1 mb 0.00 in0.0 mm 0.00 in0.0 mm 0.00 in0.0 mm
02:30 PM 53.6°F12.0°C 37.4°F3.0°C 54% 3.1 mph SE5.0 kmh SE 9.8 mph15.8 kmh 29.77 in1008.1 mb 0.00 in0.0 mm 0.00 in0.0 mm 0.00 in0.0 mm
02:45 PM 53.8°F12.1°C 37.1°F2.8°C 53% 5.4 mph SE8.7 kmh SE 7.6 mph12.2 kmh 29.76 in1007.8 mb 0.00 in0.0 mm 0.00 in0.0 mm 0.00 in0.0 mm
03:00 PM 54.0°F12.2°C 37.2°F2.9°C 53% 4.5 mph SE7.2 kmh SE 7.6 mph12.2 kmh 29.75 in1007.5 mb 0.00 in0.0 mm 0.00 in0.0 mm 0.00 in0.0 mm
03:15 PM 53.8°F12.1°C 37.1°F2.8°C 53% 6.0 mph SE9.7 kmh SE 8.3 mph13.4 kmh 29.75 in1007.5 mb 0.00 in0.0 mm 0.00 in0.0 mm 0.00 in0.0 mm
03:30 PM 53.8°F12.1°C 37.1°F2.8°C 53% 3.1 mph SE5.0 kmh SE 9.8 mph15.8 kmh 29.75 in1007.5 mb 0.00 in0.0 mm 0.00 in0.0 mm 0.00 in0.0 mm
03:45 PM 54.1°F12.3°C 37.9°F3.3°C 54% 6.9 mph SE11.1 kmh SE 9.2 mph14.8 kmh 29.75 in1007.5 mb 0.00 in0.0 mm 0.00 in0.0 mm 0.00 in0.0 mm
04:00 PM 53.8°F12.1°C 38.0°F3.3°C 55% 6.0 mph SE9.7 kmh SE 10.7 mph17.2 kmh 29.74 in1007.1 mb 0.00 in0.0 mm 0.00 in0.0 mm 0.00 in0.0 mm
04:15 PM 53.6°F12.0°C 37.8°F3.2°C 55% 8.3 mph SE13.4 kmh SE 10.7 mph17.2 kmh 29.75 in1007.5 mb 0.00 in0.0 mm 0.00 in0.0 mm 0.00 in0.0 mm
04:30 PM 53.2°F11.8°C 38.0°F3.3°C 56% 5.4 mph SE8.7 kmh SE 9.8 mph15.8 kmh 29.73 in1006.8 mb 0.00 in0.0 mm 0.00 in0.0 mm 0.00 in0.0 mm
04:45 PM 53.2°F11.8°C 38.0°F3.3°C 56% 8.3 mph SE13.4 kmh SE 9.8 mph15.8 kmh 29.74 in1007.1 mb 0.00 in0.0 mm 0.00 in0.0 mm 0.00 in0.0 mm
05:00 PM 52.7°F11.5°C 39.2°F4.0°C 60% 4.5 mph SE7.2 kmh SE 12.1 mph19.5 kmh 29.73 in1006.8 mb 0.00 in0.0 mm 0.00 in0.0 mm 0.00 in0.0 mm
05:15 PM 52.0°F11.1°C 39.0°F3.9°C 61% 6.9 mph ESE11.1 kmh ESE 9.2 mph14.8 kmh 29.73 in1006.8 mb 0.00 in0.0 mm 0.00 in0.0 mm 0.00 in0.0 mm
05:30 PM 51.1°F10.6°C 38.5°F3.6°C 62% 3.8 mph SE6.1 kmh SE 9.8 mph15.8 kmh 29.74 in1007.1 mb 0.00 in0.0 mm 0.00 in0.0 mm 0.00 in0.0 mm
05:45 PM 50.4°F10.2°C 38.3°F3.5°C 63% 3.1 mph SE5.0 kmh SE 9.8 mph15.8 kmh 29.74 in1007.1 mb 0.00 in0.0 mm 0.00 in0.0 mm 0.00 in0.0 mm
06:00 PM 49.6°F9.8°C 38.0°F3.3°C 64% 3.1 mph SE5.0 kmh SE 10.7 mph17.2 kmh 29.73 in1006.8 mb 0.00 in0.0 mm 0.00 in0.0 mm 0.00 in0.0 mm
06:15 PM 48.9°F9.4°C 38.1°F3.4°C 66% 3.8 mph SE6.1 kmh SE 8.3 mph13.4 kmh 29.73 in1006.8 mb 0.00 in0.0 mm 0.00 in0.0 mm 0.00 in0.0 mm
06:30 PM 48.4°F9.1°C 37.9°F3.3°C 67% 2.2 mph ESE3.5 kmh ESE 6.9 mph11.1 kmh 29.74 in1007.1 mb 0.00 in0.0 mm 0.00 in0.0 mm 0.00 in0.0 mm
06:45 PM 47.8°F8.8°C 38.2°F3.4°C 69% 3.1 mph SE5.0 kmh SE 5.4 mph8.7 kmh 29.74 in1007.1 mb 0.00 in0.0 mm 0.00 in0.0 mm 0.00 in0.0 mm
07:00 PM 47.1°F8.4°C 37.8°F3.2°C 70% 3.1 mph SE5.0 kmh SE 6.0 mph9.7 kmh 29.74 in1007.1 mb 0.00 in0.0 mm 0.00 in0.0 mm 0.00 in0.0 mm
07:15 PM 46.4°F8.0°C 37.2°F2.9°C 70% 1.6 mph SE2.6 kmh SE 6.9 mph11.1 kmh 29.75 in1007.5 mb 0.00 in0.0 mm 0.00 in0.0 mm 0.00 in0.0 mm
07:30 PM 45.9°F7.7°C 37.0°F2.8°C 71% 3.8 mph SE6.1 kmh SE 4.5 mph7.2 kmh 29.75 in1007.5 mb 0.00 in0.0 mm 0.00 in0.0 mm 0.00 in0.0 mm
07:45 PM 45.3°F7.4°C 36.8°F2.7°C 72% 0.7 mph SE1.1 kmh SE 3.8 mph6.1 kmh 29.75 in1007.5 mb 0.00 in0.0 mm 0.00 in0.0 mm 0.00 in0.0 mm
08:00 PM 45.0°F7.2°C 36.5°F2.5°C 72% 0.7 mph SE1.1 kmh SE 3.8 mph6.1 kmh 29.75 in1007.5 mb 0.00 in0.0 mm 0.00 in0.0 mm 0.00 in0.0 mm
08:15 PM 44.6°F7.0°C 36.5°F2.5°C 73% 0.7 mph E1.1 kmh E 1.6 mph2.6 kmh 29.76 in1007.8 mb 0.00 in0.0 mm 0.00 in0.0 mm 0.00 in0.0 mm
08:30 PM 43.9°F6.6°C 38.1°F3.4°C 80% 0.7 mph E1.1 kmh E 3.1 mph5.0 kmh 29.75 in1007.5 mb 0.00 in0.0 mm 0.00 in0.0 mm 0.00 in0.0 mm
08:45 PM 43.0°F6.1°C 37.2°F2.9°C 80% 0.7 mph NE1.1 kmh NE 2.2 mph3.5 kmh 29.75 in1007.5 mb 0.00 in0.0 mm 0.00 in0.0 mm 0.00 in0.0 mm
09:00 PM 42.6°F5.9°C 36.9°F2.7°C 80% Calm Calm 3.1 mph5.0 kmh 29.75 in1007.5 mb 0.00 in0.0 mm 0.00 in0.0 mm 0.00 in0.0 mm
09:15 PM 42.1°F5.6°C 36.7°F2.6°C 81% 1.6 mph NE2.6 kmh NE 3.1 mph5.0 kmh 29.76 in1007.8 mb 0.00 in0.0 mm 0.00 in0.0 mm 0.00 in0.0 mm
09:30 PM 41.4°F5.2°C 35.7°F2.1°C 80% 1.6 mph ENE2.6 kmh ENE 3.1 mph5.0 kmh 29.76 in1007.8 mb 0.00 in0.0 mm 0.00 in0.0 mm 0.00 in0.0 mm
09:45 PM 41.4°F5.2°C 36.0°F2.2°C 81% 2.2 mph NE3.5 kmh NE 3.8 mph6.1 kmh 29.76 in1007.8 mb 0.00 in0.0 mm 0.00 in0.0 mm 0.00 in0.0 mm
10:00 PM 41.9°F5.5°C 36.5°F2.5°C 81% 0.7 mph NNE1.1 kmh NNE 3.1 mph5.0 kmh 29.76 in1007.8 mb 0.00 in0.0 mm 0.00 in0.0 mm 0.00 in0.0 mm
10:15 PM 42.3°F5.7°C 36.9°F2.7°C 81% 2.2 mph WNW3.5 kmh WNW 4.5 mph7.2 kmh 29.76 in1007.8 mb 0.00 in0.0 mm 0.00 in0.0 mm 0.00 in0.0 mm
10:30 PM 42.3°F5.7°C 36.9°F2.7°C 81% 0.7 mph WSW1.1 kmh WSW 3.8 mph6.1 kmh 29.75 in1007.5 mb 0.00 in0.0 mm 0.00 in0.0 mm 0.00 in0.0 mm
10:45 PM 42.4°F5.8°C 37.3°F2.9°C 82% 0.7 mph NE1.1 kmh NE 3.1 mph5.0 kmh 29.75 in1007.5 mb 0.00 in0.0 mm 0.00 in0.0 mm 0.00 in0.0 mm
11:00 PM 42.6°F5.9°C 37.5°F3.1°C 82% 0.7 mph NW1.1 kmh NW 2.2 mph3.5 kmh 29.75 in1007.5 mb 0.00 in0.0 mm 0.00 in0.0 mm 0.00 in0.0 mm
11:15 PM 42.6°F5.9°C 37.5°F3.1°C 82% 1.6 mph N2.6 kmh N 2.2 mph3.5 kmh 29.75 in1007.5 mb 0.00 in0.0 mm 0.00 in0.0 mm 0.00 in0.0 mm
11:30 PM 43.0°F6.1°C 37.9°F3.3°C 82% 0.7 mph NE1.1 kmh NE 2.2 mph3.5 kmh 29.75 in1007.5 mb 0.00 in0.0 mm 0.00 in0.0 mm 0.00 in0.0 mm
11:45 PM 43.2°F6.2°C 38.4°F3.6°C 83% 1.6 mph ENE2.6 kmh ENE 2.2 mph3.5 kmh 29.75 in1007.5 mb 0.00 in0.0 mm 0.00 in0.0 mm 0.00 in0.0 mm